Time,TemperatureF,DewpointF,PressureIn,WindDirection,WindDirectionDegrees,WindSpeedMPH,WindSpeedGustMPH,Humidity,HourlyPrecipIn,Conditions,Clouds,dailyrainin,SoftwareType,DateUTC
2013-04-09 00:00:00,61.7,49.4,29.98,East,87,0.0,0.0,64,0.00,BKN,,0.00,WeatherDisplay:10.37,2013-04-09 04:00:00,
2013-04-09 00:05:00,61.7,49.4,29.98,East,87,0.0,0.0,64,0.00,BKN,,0.00,WeatherDisplay:10.37,2013-04-09 04:05:00,
2013-04-09 00:10:00,61.5,49.2,29.98,NNW,335,0.0,0.0,64,0.00,FEW,,0.00,WeatherDisplay:10.37,2013-04-09 04:10:00,
2013-04-09 00:15:00,61.5,49.2,29.98,SSE,155,0.0,0.0,64,0.00,FEW,,0.00,WeatherDisplay:10.37,2013-04-09 04:15:00,
2013-04-09 00:20:00,61.5,49.2,29.98,ENE,65,0.5,1.1,64,0.00,FEW,,0.00,WeatherDisplay:10.37,2013-04-09 04:20:00,
2013-04-09 00:25:00,61.5,49.6,29.98,SSE,155,0.0,0.0,65,0.00,FEW,,0.00,WeatherDisplay:10.37,2013-04-09 04:25:00,
2013-04-09 00:30:00,61.3,49.5,29.98,ESE,109,0.0,0.0,65,0.00,FEW,,0.00,WeatherDisplay:10.37,2013-04-09 04:30:00,
2013-04-09 00:36:00,61.2,49.3,29.99,South,177,0.0,0.0,65,0.00,FEW,,0.00,WeatherDisplay:10.37,2013-04-09 04:36:00,
2013-04-09 00:41:00,61.2,49.3,29.99,South,177,1.8,2.3,65,0.00,FEW,,0.00,WeatherDisplay:10.37,2013-04-09 04:41:00,
2013-04-09 00:46:00,61.2,49.3,29.99,SSE,155,0.5,1.1,65,0.00,FEW,,0.00,WeatherDisplay:10.37,2013-04-09 04:46:00,
2013-04-09 00:51:00,61.2,48.9,29.99,SE,132,4.2,4.6,64,0.00,FEW,,0.00,WeatherDisplay:10.37,2013-04-09 04:51:00,
2013-04-09 00:56:00,61.0,49.1,29.99,SSW,199,2.7,2.7,65,0.00,FEW,,0.00,WeatherDisplay:10.37,2013-04-09 04:56:00,
2013-04-09 01:01:00,61.0,49.1,29.99,SW,222,2.9,3.5,65,0.00,FEW,,0.00,WeatherDisplay:10.37,2013-04-09 05:01:00,
2013-04-09 01:06:00,61.0,49.1,29.99,SW,222,1.8,3.5,65,0.00,FEW,,0.00,WeatherDisplay:10.37,2013-04-09 05:06:00,
2013-04-09 01:11:00,61.0,49.1,29.99,SSE,155,1.4,2.3,65,0.00,BKN,,0.00,WeatherDisplay:10.37,2013-04-09 05:11:00,
2013-04-09 01:16:00,61.0,49.1,30.00,South,177,1.9,2.3,65,0.00,BKN,,0.00,WeatherDisplay:10.37,2013-04-09 05:16:00,
2013-04-09 01:21:00,61.0,49.1,30.00,SSE,155,0.0,1.1,65,0.00,BKN,,0.00,WeatherDisplay:10.37,2013-04-09 05:21:00,
2013-04-09 01:26:00,61.2,49.3,30.00,South,177,0.6,1.1,65,0.00,BKN,,0.00,WeatherDisplay:10.37,2013-04-09 05:26:00,
2013-04-09 01:31:00,61.2,49.3,30.00,SE,132,0.0,0.0,65,0.00,BKN,,0.00,WeatherDisplay:10.37,2013-04-09 05:31:00,
2013-04-09 01:36:00,61.2,49.3,30.00,South,177,0.0,0.0,65,0.00,BKN,,0.00,WeatherDisplay:10.37,2013-04-09 05:36:00,
2013-04-09 01:42:00,61.2,49.3,30.00,South,177,0.0,0.0,65,0.00,BKN,,0.00,WeatherDisplay:10.37,2013-04-09 05:42:00,
2013-04-09 01:47:00,61.3,49.5,30.00,SSE,155,0.0,0.0,65,0.00,BKN,,0.00,WeatherDisplay:10.37,2013-04-09 05:47:00,
2013-04-09 01:52:00,61.3,49.1,30.00,SSE,155,1.3,1.3,64,0.00,BKN,,0.00,WeatherDisplay:10.37,2013-04-09 05:52:00,
2013-04-09 01:57:00,61.2,49.3,30.00,SE,132,0.4,1.1,65,0.00,BKN,,0.00,WeatherDisplay:10.37,2013-04-09 05:57:00,
2013-04-09 02:02:00,61.0,49.1,30.00,SSE,155,0.0,0.0,65,0.00,BKN,,0.00,WeatherDisplay:10.37,2013-04-09 06:02:00,
2013-04-09 02:07:00,61.0,49.1,30.00,SSW,199,0.0,1.1,65,0.00,BKN,,0.00,WeatherDisplay:10.37,2013-04-09 06:07:00,
2013-04-09 02:12:00,61.0,49.5,30.00,SE,132,0.0,0.0,66,0.00,BKN,,0.00,WeatherDisplay:10.37,2013-04-09 06:12:00,
2013-04-09 02:17:00,60.8,49.4,30.00,SSE,155,1.1,1.1,66,0.00,BKN,,0.00,WeatherDisplay:10.37,2013-04-09 06:17:00,
2013-04-09 02:22:00,60.6,49.2,30.00,ESE,109,0.0,0.0,66,0.00,BKN,,0.00,WeatherDisplay:10.37,2013-04-09 06:22:00,
2013-04-09 02:27:00,60.6,49.2,30.00,SE,132,0.0,0.0,66,0.00,BKN,,0.00,WeatherDisplay:10.37,2013-04-09 06:27:00,
2013-04-09 02:32:00,60.6,49.2,30.00,SE,132,0.0,0.0,66,0.00,BKN,,0.00,WeatherDisplay:10.37,2013-04-09 06:32:00,
2013-04-09 02:37:00,60.3,48.9,30.00,ESE,109,0.0,0.0,66,0.00,BKN,,0.00,WeatherDisplay:10.37,2013-04-09 06:37:00,
2013-04-09 02:42:00,60.1,49.1,30.00,SSW,199,0.0,0.0,67,0.00,BKN,,0.00,WeatherDisplay:10.37,2013-04-09 06:42:00,
2013-04-09 02:47:00,59.9,48.9,29.99,South,177,0.0,0.0,67,0.00,BKN,,0.00,WeatherDisplay:10.37,2013-04-09 06:47:00,
2013-04-09 02:52:00,59.7,49.1,29.99,SSE,155,0.0,0.0,68,0.00,BKN,,0.00,WeatherDisplay:10.37,2013-04-09 06:52:00,
2013-04-09 02:57:00,59.5,49.0,29.99,SSE,155,0.0,0.0,68,0.00,BKN,,0.00,WeatherDisplay:10.37,2013-04-09 06:57:00,
2013-04-09 03:02:00,59.5,49.0,29.99,SSE,155,0.0,0.0,68,0.00,BKN,,0.00,WeatherDisplay:10.37,2013-04-09 07:02:00,
2013-04-09 03:07:00,59.4,48.8,30.00,SE,132,0.0,0.0,68,0.00,BKN,,0.00,WeatherDisplay:10.37,2013-04-09 07:07:00,
2013-04-09 03:12:00,59.4,49.2,30.00,SE,132,1.1,1.1,69,0.00,BKN,,0.00,WeatherDisplay:10.37,2013-04-09 07:12:00,
2013-04-09 03:17:00,59.2,48.6,29.99,South,177,0.0,0.0,68,0.00,BKN,,0.00,WeatherDisplay:10.37,2013-04-09 07:17:00,
2013-04-09 03:22:00,58.8,48.7,29.99,SE,132,0.0,0.0,69,0.00,BKN,,0.00,WeatherDisplay:10.37,2013-04-09 07:22:00,
2013-04-09 03:27:00,58.8,48.7,29.99,South,177,0.0,1.1,69,0.00,BKN,,0.00,WeatherDisplay:10.37,2013-04-09 07:27:00,
2013-04-09 03:32:00,58.8,48.7,29.99,SSE,155,0.0,0.0,69,0.00,BKN,,0.00,WeatherDisplay:10.37,2013-04-09 07:32:00,
2013-04-09 03:37:00,58.8,48.7,29.99,SSW,199,1.1,1.6,69,0.00,BKN,,0.00,WeatherDisplay:10.37,2013-04-09 07:37:00,
2013-04-09 03:42:00,58.8,48.7,29.99,SSE,155,0.0,0.0,69,0.00,BKN,,0.00,WeatherDisplay:10.37,2013-04-09 07:42:00,
2013-04-09 03:47:00,58.8,49.1,29.99,South,177,0.0,0.0,70,0.00,BKN,,0.00,WeatherDisplay:10.37,2013-04-09 07:47:00,
2013-04-09 03:52:00,58.8,49.1,29.99,SSE,155,1.2,1.3,70,0.00,BKN,,0.00,WeatherDisplay:10.37,2013-04-09 07:52:00,
2013-04-09 03:57:00,58.8,49.1,30.00,SSE,155,0.0,0.0,70,0.00,BKN,,0.00,WeatherDisplay:10.37,2013-04-09 07:57:00,
2013-04-09 04:03:00,58.8,49.4,30.00,South,177,0.0,0.0,71,0.00,BKN,,0.00,WeatherDisplay:10.37,2013-04-09 08:03:00,
2013-04-09 04:08:00,58.8,49.4,29.99,SSE,155,0.0,0.0,71,0.00,BKN,,0.00,WeatherDisplay:10.37,2013-04-09 08:08:00,
2013-04-09 04:13:00,58.8,49.4,29.99,SE,132,0.0,0.0,71,0.00,OVC,,0.00,WeatherDisplay:10.37,2013-04-09 08:13:00,
2013-04-09 04:18:00,58.8,49.4,29.99,SE,132,1.6,1.6,71,0.00,OVC,,0.00,WeatherDisplay:10.37,2013-04-09 08:18:00,
2013-04-09 04:23:00,58.6,49.3,30.00,SSE,155,0.0,0.0,71,0.00,OVC,,0.00,WeatherDisplay:10.37,2013-04-09 08:23:00,
2013-04-09 04:28:00,58.6,49.3,29.99,SSE,155,2.0,2.3,71,0.00,OVC,,0.00,WeatherDisplay:10.37,2013-04-09 08:28:00,
2013-04-09 04:33:00,58.6,49.3,29.99,SSE,155,0.0,0.0,71,0.00,OVC,,0.00,WeatherDisplay:10.37,2013-04-09 08:33:00,
2013-04-09 04:38:00,58.3,48.9,30.00,SSE,155,3.1,3.5,71,0.00,OVC,,0.00,WeatherDisplay:10.37,2013-04-09 08:38:00,
2013-04-09 04:43:00,58.3,48.9,30.00,SE,132,0.0,1.1,71,0.00,OVC,,0.00,WeatherDisplay:10.37,2013-04-09 08:43:00,
2013-04-09 04:48:00,58.3,48.9,30.00,SSE,155,0.2,2.2,71,0.00,OVC,,0.00,WeatherDisplay:10.37,2013-04-09 08:48:00,
2013-04-09 04:53:00,58.3,48.9,30.00,SSE,155,0.0,1.1,71,0.00,OVC,,0.00,WeatherDisplay:10.37,2013-04-09 08:53:00,
2013-04-09 04:58:00,58.5,49.5,30.00,South,177,0.0,0.0,72,0.00,OVC,,0.00,WeatherDisplay:10.37,2013-04-09 08:58:00,
2013-04-09 05:03:00,58.6,49.3,30.00,South,177,1.0,2.2,71,0.00,OVC,,0.00,WeatherDisplay:10.37,2013-04-09 09:03:00,
2013-04-09 05:08:00,58.8,49.4,30.00,South,177,2.5,2.5,71,0.00,OVC,,0.00,WeatherDisplay:10.37,2013-04-09 09:08:00,
2013-04-09 05:13:00,58.8,49.4,30.00,ESE,109,0.0,0.0,71,0.00,OVC,,0.00,WeatherDisplay:10.37,2013-04-09 09:13:00,
2013-04-09 05:18:00,58.6,49.3,30.00,SSE,155,0.7,1.1,71,0.00,OVC,,0.00,WeatherDisplay:10.37,2013-04-09 09:18:00,
2013-04-09 05:23:00,58.5,49.1,30.00,SSE,155,1.3,1.3,71,0.00,OVC,,0.00,WeatherDisplay:10.37,2013-04-09 09:23:00,
2013-04-09 05:28:00,58.3,48.9,30.00,South,177,1.3,1.3,71,0.00,OVC,,0.00,WeatherDisplay:10.37,2013-04-09 09:28:00,
2013-04-09 05:33:00,58.1,48.7,30.00,SSE,155,0.0,0.0,71,0.00,OVC,,0.00,WeatherDisplay:10.37,2013-04-09 09:33:00,
2013-04-09 05:38:00,57.9,48.6,30.00,South,177,0.0,1.1,71,0.00,OVC,,0.00,WeatherDisplay:10.37,2013-04-09 09:38:00,
2013-04-09 05:43:00,58.1,48.7,30.01,South,177,0.1,1.1,71,0.00,OVC,,0.00,WeatherDisplay:10.37,2013-04-09 09:43:00,
2013-04-09 05:48:00,57.9,48.6,30.01,SSE,155,0.9,2.3,71,0.00,OVC,,0.00,WeatherDisplay:10.37,2013-04-09 09:48:00,
2013-04-09 05:53:00,57.9,48.6,30.01,SSW,199,0.9,1.1,71,0.00,OVC,,0.00,WeatherDisplay:10.37,2013-04-09 09:53:00,
2013-04-09 05:58:00,57.9,48.9,30.01,ESE,109,0.0,0.0,72,0.00,OVC,,0.00,WeatherDisplay:10.37,2013-04-09 09:58:00,
2013-04-09 06:03:00,57.9,48.9,30.01,SE,132,0.0,0.0,72,0.00,OVC,,0.00,WeatherDisplay:10.37,2013-04-09 10:03:00,
2013-04-09 06:08:00,57.9,48.9,30.02,SSE,155,0.0,1.1,72,0.00,OVC,,0.00,WeatherDisplay:10.37,2013-04-09 10:08:00,
2013-04-09 06:13:00,57.9,48.9,30.02,SSE,155,0.0,1.1,72,0.00,BKN,,0.00,WeatherDisplay:10.37,2013-04-09 10:13:00,
2013-04-09 06:18:00,57.9,48.9,30.02,SE,132,0.0,0.0,72,0.00,BKN,,0.00,WeatherDisplay:10.37,2013-04-09 10:18:00,
2013-04-09 06:24:00,57.9,49.3,30.02,SSE,155,1.3,1.3,73,0.00,BKN,,0.00,WeatherDisplay:10.37,2013-04-09 10:24:00,
2013-04-09 06:29:00,58.1,49.5,30.02,SSE,155,0.9,1.6,73,0.00,BKN,,0.00,WeatherDisplay:10.37,2013-04-09 10:29:00,
2013-04-09 06:34:00,58.1,49.5,30.03,SE,132,0.0,2.3,73,0.00,BKN,,0.00,WeatherDisplay:10.37,2013-04-09 10:34:00,
2013-04-09 06:39:00,58.3,49.7,30.03,SSE,155,0.7,2.5,73,0.00,BKN,,0.00,WeatherDisplay:10.37,2013-04-09 10:39:00,
2013-04-09 06:44:00,58.3,49.3,30.03,SSE,155,1.1,1.1,72,0.00,BKN,,0.00,WeatherDisplay:10.37,2013-04-09 10:44:00,
2013-04-09 06:49:00,58.3,49.3,30.03,SSE,155,1.7,2.3,72,0.00,BKN,,0.00,WeatherDisplay:10.37,2013-04-09 10:49:00,
2013-04-09 06:54:00,58.3,49.7,30.03,SSE,155,0.9,1.3,73,0.00,BKN,,0.00,WeatherDisplay:10.37,2013-04-09 10:54:00,
2013-04-09 06:59:00,58.5,49.5,30.03,South,177,1.8,2.3,72,0.00,BKN,,0.00,WeatherDisplay:10.37,2013-04-09 10:59:00,
2013-04-09 07:04:00,58.5,49.5,30.04,SE,132,2.2,2.3,72,0.00,BKN,,0.00,WeatherDisplay:10.37,2013-04-09 11:04:00,
2013-04-09 07:09:00,58.5,49.5,30.04,SSE,155,2.5,3.5,72,0.00,BKN,,0.00,WeatherDisplay:10.37,2013-04-09 11:09:00,
2013-04-09 07:14:00,58.6,49.6,30.04,South,177,0.0,2.3,72,0.00,BKN,,0.00,WeatherDisplay:10.37,2013-04-09 11:14:00,
2013-04-09 07:19:00,58.8,49.8,30.05,SSW,199,0.2,3.1,72,0.00,BKN,,0.00,WeatherDisplay:10.37,2013-04-09 11:19:00,
2013-04-09 07:25:00,58.8,49.8,30.05,South,177,3.1,4.6,72,0.00,BKN,,0.00,WeatherDisplay:10.37,2013-04-09 11:25:00,
2013-04-09 07:30:00,58.8,49.8,30.05,SSE,155,0.7,1.1,72,0.00,BKN,,0.00,WeatherDisplay:10.37,2013-04-09 11:30:00,
2013-04-09 07:35:00,58.8,49.8,30.05,ESE,109,2.1,3.5,72,0.00,BKN,,0.00,WeatherDisplay:10.37,2013-04-09 11:35:00,
2013-04-09 07:40:00,58.8,49.8,30.05,South,177,0.0,3.5,72,0.00,BKN,,0.00,WeatherDisplay:10.37,2013-04-09 11:40:00,
2013-04-09 07:45:00,59.0,50.0,30.05,South,177,3.1,3.4,72,0.00,BKN,,0.00,WeatherDisplay:10.37,2013-04-09 11:45:00,
2013-04-09 07:50:00,58.8,49.8,30.04,SSE,155,2.1,3.5,72,0.00,BKN,,0.00,WeatherDisplay:10.37,2013-04-09 11:50:00,
2013-04-09 07:55:00,59.0,50.0,30.05,SSE,155,0.0,0.0,72,0.00,BKN,,0.00,WeatherDisplay:10.37,2013-04-09 11:55:00,
2013-04-09 08:00:00,59.2,50.2,30.05,SSW,199,3.6,4.6,72,0.00,BKN,,0.00,WeatherDisplay:10.37,2013-04-09 12:00:00,
2013-04-09 08:05:00,59.2,50.2,30.05,SSW,192,3.0,0.0,72,0.00,BKN,,0.00,WeatherDisplay:10.37,2013-04-09 12:05:00,
2013-04-09 08:10:00,59.2,50.2,30.05,SSW,199,2.5,2.5,72,0.00,BKN,,0.00,WeatherDisplay:10.37,2013-04-09 12:10:00,
2013-04-09 08:15:00,59.5,50.5,30.05,SSW,199,0.0,0.0,72,0.00,BKN,,0.00,WeatherDisplay:10.37,2013-04-09 12:15:00,
2013-04-09 08:20:00,59.7,50.7,30.06,West,267,1.0,2.3,72,0.00,BKN,,0.00,WeatherDisplay:10.37,2013-04-09 12:20:00,
2013-04-09 08:25:00,59.9,50.8,30.06,South,177,0.0,0.0,72,0.00,BKN,,0.00,WeatherDisplay:10.37,2013-04-09 12:25:00,
2013-04-09 08:30:00,60.1,51.0,30.06,South,177,2.9,3.5,72,0.00,BKN,,0.00,WeatherDisplay:10.37,2013-04-09 12:30:00,
2013-04-09 08:35:00,60.5,51.4,30.06,SW,220,1.0,0.0,72,0.00,BKN,,0.00,WeatherDisplay:10.37,2013-04-09 12:35:00,
2013-04-09 08:40:00,61.0,51.9,30.06,SSE,156,1.0,0.0,72,0.00,BKN,,0.00,WeatherDisplay:10.37,2013-04-09 12:40:00,
2013-04-09 08:45:00,61.3,51.9,30.06,SSE,155,2.5,2.5,71,0.00,BKN,,0.00,WeatherDisplay:10.37,2013-04-09 12:45:00,
2013-04-09 08:50:00,61.5,52.0,30.06,South,177,3.2,3.5,71,0.00,BKN,,0.00,WeatherDisplay:10.37,2013-04-09 12:50:00,
2013-04-09 08:55:00,61.9,52.4,30.06,SSW,199,2.0,2.3,71,0.00,BKN,,0.00,WeatherDisplay:10.37,2013-04-09 12:55:00,
2013-04-09 09:00:00,62.4,52.9,30.06,SSW,203,2.0,0.0,71,0.00,BKN,,0.00,WeatherDisplay:10.37,2013-04-09 13:00:00,
2013-04-09 09:05:00,63.0,53.4,30.06,SW,222,5.7,8.1,71,0.00,BKN,,0.00,WeatherDisplay:10.37,2013-04-09 13:05:00,
2013-04-09 09:10:00,63.3,53.8,30.06,SW,222,6.0,6.0,71,0.00,BKN,,0.00,WeatherDisplay:10.37,2013-04-09 13:10:00,
2013-04-09 09:15:00,64.0,54.1,30.06,South,177,3.1,3.5,70,0.00,BKN,,0.00,WeatherDisplay:10.37,2013-04-09 13:15:00,
2013-04-09 09:20:00,64.2,53.8,30.06,SSW,199,7.2,8.1,69,0.00,BKN,,0.00,WeatherDisplay:10.37,2013-04-09 13:20:00,
2013-04-09 09:25:00,64.6,54.6,30.05,SW,222,4.9,4.9,70,0.00,BKN,,0.00,WeatherDisplay:10.37,2013-04-09 13:25:00,
2013-04-09 09:30:00,65.1,54.7,30.05,SSW,199,5.2,6.0,69,0.00,BKN,,0.00,WeatherDisplay:10.37,2013-04-09 13:30:00,
2013-04-09 09:35:00,65.5,55.0,30.06,South,177,3.9,4.6,69,0.00,BKN,,0.00,WeatherDisplay:10.37,2013-04-09 13:35:00,
2013-04-09 09:40:00,66.0,55.6,30.05,SE,132,11.4,11.5,69,0.00,BKN,,0.00,WeatherDisplay:10.37,2013-04-09 13:40:00,
2013-04-09 09:45:00,66.7,55.8,30.06,South,177,9.0,9.2,68,0.00,BKN,,0.00,WeatherDisplay:10.37,2013-04-09 13:45:00,
2013-04-09 09:50:00,67.1,56.2,30.06,SSE,155,8.1,9.2,68,0.00,BKN,,0.00,WeatherDisplay:10.37,2013-04-09 13:50:00,
2013-04-09 09:55:00,67.3,55.9,30.06,SSW,199,9.4,9.4,67,0.00,BKN,,0.00,WeatherDisplay:10.37,2013-04-09 13:55:00,
2013-04-09 10:00:00,67.8,56.0,30.06,South,177,11.0,11.5,66,0.00,BKN,,0.00,WeatherDisplay:10.37,2013-04-09 14:00:00,
2013-04-09 10:06:00,68.7,56.9,30.06,South,177,12.9,13.0,66,0.00,BKN,,0.00,WeatherDisplay:10.37,2013-04-09 14:06:00,
2013-04-09 10:11:00,69.8,57.9,30.06,WSW,245,6.5,6.9,66,0.00,BKN,,0.00,WeatherDisplay:10.37,2013-04-09 14:11:00,
2013-04-09 10:16:00,70.9,58.1,30.06,SSW,199,12.7,12.7,64,0.00,BKN,,0.00,WeatherDisplay:10.37,2013-04-09 14:16:00,
2013-04-09 10:21:00,71.8,58.5,30.06,South,177,6.6,13.8,63,0.00,BKN,,0.00,WeatherDisplay:10.37,2013-04-09 14:21:00,
2013-04-09 10:26:00,72.3,58.6,30.06,South,177,11.4,11.5,62,0.00,BKN,,0.00,WeatherDisplay:10.37,2013-04-09 14:26:00,
2013-04-09 10:31:00,73.8,59.0,30.06,SSW,199,7.0,15.0,60,0.00,BKN,,0.00,WeatherDisplay:10.37,2013-04-09 14:31:00,
2013-04-09 10:36:00,74.1,58.9,30.07,SW,222,16.8,17.3,59,0.00,BKN,,0.00,WeatherDisplay:10.37,2013-04-09 14:36:00,
2013-04-09 10:41:00,74.1,58.4,30.07,SW,222,5.6,5.8,58,0.00,BKN,,0.00,WeatherDisplay:10.37,2013-04-09 14:41:00,
2013-04-09 10:46:00,74.5,58.7,30.07,WSW,245,12.6,23.0,58,0.00,BKN,,0.00,WeatherDisplay:10.37,2013-04-09 14:46:00,
2013-04-09 10:51:00,75.0,59.2,30.08,SSE,155,4.2,8.1,58,0.00,BKN,,0.00,WeatherDisplay:10.37,2013-04-09 14:51:00,
2013-04-09 10:56:00,75.6,59.3,30.07,SSE,155,12.3,12.7,57,0.00,BKN,,0.00,WeatherDisplay:10.37,2013-04-09 14:56:00,
2013-04-09 11:01:00,76.1,59.8,30.07,WNW,289,8.3,8.5,57,0.00,BKN,,0.00,WeatherDisplay:10.37,2013-04-09 15:01:00,
2013-04-09 11:06:00,76.6,59.8,30.07,WSW,245,7.2,7.2,56,0.00,BKN,,0.00,WeatherDisplay:10.37,2013-04-09 15:06:00,
2013-04-09 11:11:00,76.8,59.9,30.08,WSW,245,6.0,6.0,56,0.00,BKN,,0.00,WeatherDisplay:10.37,2013-04-09 15:11:00,
2013-04-09 11:16:00,77.7,60.3,30.08,SSW,199,8.8,9.4,55,0.00,BKN,,0.00,WeatherDisplay:10.37,2013-04-09 15:16:00,
2013-04-09 11:21:00,78.6,60.6,30.08,West,267,12.3,16.1,54,0.00,BKN,,0.00,WeatherDisplay:10.37,2013-04-09 15:21:00,
2013-04-09 11:27:00,79.5,60.4,30.08,SSW,199,10.2,16.1,52,0.00,BKN,,0.00,WeatherDisplay:10.37,2013-04-09 15:27:00,
2013-04-09 11:32:00,79.0,59.9,30.08,SSE,155,6.9,8.1,52,0.00,BKN,,0.00,WeatherDisplay:10.37,2013-04-09 15:32:00,
2013-04-09 11:37:00,78.4,59.4,30.09,SW,222,11.3,11.8,52,0.00,BKN,,0.00,WeatherDisplay:10.37,2013-04-09 15:37:00,
2013-04-09 11:42:00,77.7,58.7,30.09,SE,132,9.7,17.3,52,0.00,BKN,,0.00,WeatherDisplay:10.37,2013-04-09 15:42:00,
2013-04-09 11:47:00,77.4,58.9,30.09,South,177,8.6,9.2,53,0.00,BKN,,0.00,WeatherDisplay:10.37,2013-04-09 15:47:00,
2013-04-09 11:52:00,76.8,58.4,30.09,SSW,199,12.8,13.8,53,0.00,BKN,,0.00,WeatherDisplay:10.37,2013-04-09 15:52:00,
2013-04-09 11:57:00,76.3,58.4,30.09,SW,222,6.3,6.3,54,0.00,BKN,,0.00,WeatherDisplay:10.37,2013-04-09 15:57:00,
2013-04-09 12:02:00,76.3,58.4,30.09,West,267,8.3,8.3,54,0.00,BKN,,0.00,WeatherDisplay:10.37,2013-04-09 16:02:00,
2013-04-09 12:08:00,75.9,58.6,30.08,WSW,245,5.8,5.8,55,0.00,BKN,,0.00,WeatherDisplay:10.37,2013-04-09 16:08:00,
2013-04-09 12:13:00,76.1,58.8,30.08,South,177,8.3,8.3,55,0.00,BKN,,0.00,WeatherDisplay:10.37,2013-04-09 16:13:00,
2013-04-09 12:18:00,75.9,58.1,30.08,SSW,199,19.9,19.9,54,0.00,BKN,,0.00,WeatherDisplay:10.37,2013-04-09 16:18:00,
2013-04-09 12:23:00,75.7,58.4,30.09,SW,222,8.9,13.0,55,0.00,BKN,,0.00,WeatherDisplay:10.37,2013-04-09 16:23:00,
2013-04-09 12:28:00,75.7,58.4,30.08,WSW,245,11.2,11.5,55,0.00,BKN,,0.00,WeatherDisplay:10.37,2013-04-09 16:28:00,
2013-04-09 12:33:00,75.7,58.4,30.08,WSW,245,21.0,21.0,55,0.00,BKN,,0.00,WeatherDisplay:10.37,2013-04-09 16:33:00,
2013-04-09 12:38:00,76.8,59.4,30.08,South,177,4.3,5.8,55,0.00,BKN,,0.00,WeatherDisplay:10.37,2013-04-09 16:38:00,
2013-04-09 12:43:00,77.9,60.4,30.08,South,177,5.1,5.1,55,0.00,BKN,,0.00,WeatherDisplay:10.37,2013-04-09 16:43:00,
2013-04-09 12:48:00,79.2,61.1,30.08,West,267,8.9,9.2,54,0.00,BKN,,0.00,WeatherDisplay:10.37,2013-04-09 16:48:00,
2013-04-09 12:53:00,79.7,61.1,30.08,WNW,289,6.6,6.9,53,0.00,BKN,,0.00,WeatherDisplay:10.37,2013-04-09 16:53:00,
2013-04-09 12:58:00,80.2,60.5,30.08,WSW,245,19.0,19.6,51,0.00,BKN,,0.00,WeatherDisplay:10.37,2013-04-09 16:58:00,
2013-04-09 13:03:00,81.5,61.6,30.08,SW,222,15.8,16.1,51,0.00,BKN,,0.00,WeatherDisplay:10.37,2013-04-09 17:03:00,
2013-04-09 13:08:00,82.0,61.0,30.07,WSW,245,12.6,13.8,49,0.00,BKN,,0.00,WeatherDisplay:10.37,2013-04-09 17:08:00,
2013-04-09 13:13:00,81.9,60.8,30.07,SSE,155,5.1,5.1,49,0.00,BKN,,0.00,WeatherDisplay:10.37,2013-04-09 17:13:00,
2013-04-09 13:18:00,81.7,60.7,30.07,ESE,109,18.1,18.1,49,0.00,BKN,,0.00,WeatherDisplay:10.37,2013-04-09 17:18:00,
2013-04-09 13:23:00,82.9,62.4,30.06,WSW,245,15.2,15.2,50,0.00,BKN,,0.00,WeatherDisplay:10.37,2013-04-09 17:23:00,
2013-04-09 13:28:00,83.1,62.0,30.06,WSW,245,3.8,10.4,49,0.00,BKN,,0.00,WeatherDisplay:10.37,2013-04-09 17:28:00,
2013-04-09 13:33:00,83.1,60.2,30.06,South,177,10.1,10.1,46,0.00,BKN,,0.00,WeatherDisplay:10.37,2013-04-09 17:33:00,
2013-04-09 13:38:00,82.8,59.9,30.06,SSW,199,8.6,10.4,46,0.00,BKN,,0.00,WeatherDisplay:10.37,2013-04-09 17:38:00,
2013-04-09 13:43:00,82.6,60.3,30.05,WSW,245,10.5,10.5,47,0.00,BKN,,0.00,WeatherDisplay:10.37,2013-04-09 17:43:00,
2013-04-09 13:48:00,82.6,60.3,30.05,WSW,245,10.5,10.5,47,0.00,BKN,,0.00,WeatherDisplay:10.37,2013-04-09 17:48:00,
2013-04-09 13:53:00,82.0,59.8,30.05,WSW,245,10.5,10.5,47,0.00,BKN,,0.00,WeatherDisplay:10.37,2013-04-09 17:53:00,
2013-04-09 13:58:00,82.2,60.0,30.03,South,177,10.7,10.7,47,0.00,BKN,,0.00,WeatherDisplay:10.37,2013-04-09 17:58:00,
2013-04-09 14:03:00,82.2,60.0,30.03,SSE,155,9.2,9.2,47,0.00,BKN,,0.00,WeatherDisplay:10.37,2013-04-09 18:03:00,
2013-04-09 14:08:00,82.6,60.3,30.03,South,177,6.2,8.1,47,0.00,BKN,,0.00,WeatherDisplay:10.37,2013-04-09 18:08:00,
2013-04-09 14:13:00,82.8,60.5,30.03,SW,222,12.7,12.7,47,0.00,BKN,,0.00,WeatherDisplay:10.37,2013-04-09 18:13:00,
2013-04-09 14:18:00,82.9,60.6,30.03,West,267,4.5,4.6,47,0.00,BKN,,0.00,WeatherDisplay:10.37,2013-04-09 18:18:00,
2013-04-09 14:23:00,82.6,60.3,30.03,WSW,245,4.6,9.2,47,0.00,BKN,,0.00,WeatherDisplay:10.37,2013-04-09 18:23:00,
2013-04-09 14:28:00,82.2,60.0,30.03,SW,222,11.0,15.0,47,0.00,BKN,,0.00,WeatherDisplay:10.37,2013-04-09 18:28:00,
2013-04-09 14:33:00,82.2,60.6,30.02,WSW,245,11.0,11.6,48,0.00,BKN,,0.00,WeatherDisplay:10.37,2013-04-09 18:33:00,
2013-04-09 14:38:00,82.2,60.6,30.02,SSW,199,10.3,12.7,48,0.00,BKN,,0.00,WeatherDisplay:10.37,2013-04-09 18:38:00,
2013-04-09 14:43:00,82.8,60.5,30.02,West,267,14.5,15.0,47,0.00,BKN,,0.00,WeatherDisplay:10.37,2013-04-09 18:43:00,
2013-04-09 14:48:00,83.1,60.2,30.02,WSW,245,10.1,24.1,46,0.00,BKN,,0.00,WeatherDisplay:10.37,2013-04-09 18:48:00,
2013-04-09 14:53:00,83.3,60.4,30.02,West,267,6.9,17.3,46,0.00,BKN,,0.00,WeatherDisplay:10.37,2013-04-09 18:53:00,
2013-04-09 14:58:00,83.5,60.5,30.02,SW,222,10.5,15.0,46,0.00,BKN,,0.00,WeatherDisplay:10.37,2013-04-09 18:58:00,
2013-04-09 15:03:00,83.8,60.2,30.01,SW,222,13.0,25.3,45,0.00,BKN,,0.00,WeatherDisplay:10.37,2013-04-09 19:03:00,
2013-04-09 15:08:00,84.7,60.4,30.01,WSW,245,15.3,18.4,44,0.00,BKN,,0.00,WeatherDisplay:10.37,2013-04-09 19:08:00,
2013-04-09 15:13:00,84.6,60.2,30.01,SSW,199,11.1,15.0,44,0.00,BKN,,0.00,WeatherDisplay:10.37,2013-04-09 19:13:00,
2013-04-09 15:18:00,84.4,60.1,30.01,NW,312,5.8,10.4,44,0.00,BKN,,0.00,WeatherDisplay:10.37,2013-04-09 19:18:00,
2013-04-09 15:23:00,84.9,60.6,30.01,West,267,11.4,17.3,44,0.00,BKN,,0.00,WeatherDisplay:10.37,2013-04-09 19:23:00,
2013-04-09 15:28:00,84.9,59.9,30.00,SSW,199,7.8,15.0,43,0.00,BKN,,0.00,WeatherDisplay:10.37,2013-04-09 19:28:00,
2013-04-09 15:33:00,84.9,60.6,30.00,WSW,245,5.8,9.2,44,0.00,BKN,,0.00,WeatherDisplay:10.37,2013-04-09 19:33:00,
2013-04-09 15:38:00,84.9,60.6,30.00,WSW,245,8.9,12.7,44,0.00,BKN,,0.00,WeatherDisplay:10.37,2013-04-09 19:38:00,
2013-04-09 15:43:00,84.9,60.6,30.00,East,87,4.9,10.4,44,0.00,BKN,,0.00,WeatherDisplay:10.37,2013-04-09 19:43:00,
2013-04-09 15:48:00,85.3,60.9,30.00,SW,222,4.4,6.9,44,0.00,BKN,,0.00,WeatherDisplay:10.37,2013-04-09 19:48:00,
2013-04-09 15:53:00,85.1,60.1,30.00,SW,222,12.2,15.0,43,0.00,BKN,,0.00,WeatherDisplay:10.37,2013-04-09 19:53:00,
2013-04-09 15:58:00,84.7,59.8,29.99,SW,222,13.4,13.8,43,0.00,BKN,,0.00,WeatherDisplay:10.37,2013-04-09 19:58:00,
2013-04-09 16:03:00,84.7,60.4,29.99,SSE,155,21.2,21.2,44,0.00,BKN,,0.00,WeatherDisplay:10.37,2013-04-09 20:03:00,
2013-04-09 16:08:00,84.6,60.2,29.99,SW,222,6.9,8.1,44,0.00,SCT,,0.00,WeatherDisplay:10.37,2013-04-09 20:08:00,
2013-04-09 16:13:00,84.4,60.1,29.99,SW,222,11.9,13.8,44,0.00,SCT,,0.00,WeatherDisplay:10.37,2013-04-09 20:13:00,
2013-04-09 16:19:00,84.0,59.8,29.99,SSE,155,13.2,13.2,44,0.00,SCT,,0.00,WeatherDisplay:10.37,2013-04-09 20:19:00,
2013-04-09 16:24:00,83.1,58.9,29.99,SE,132,12.9,17.3,44,0.00,SCT,,0.00,WeatherDisplay:10.37,2013-04-09 20:24:00,
2013-04-09 16:29:00,82.8,59.3,29.98,WSW,245,14.3,14.3,45,0.00,SCT,,0.00,WeatherDisplay:10.37,2013-04-09 20:29:00,
2013-04-09 16:35:00,82.9,60.0,29.98,South,177,12.1,12.1,46,0.00,SCT,,0.00,WeatherDisplay:10.37,2013-04-09 20:35:00,
2013-04-09 16:40:00,83.8,60.8,29.98,SW,222,16.6,17.3,46,0.00,SCT,,0.00,WeatherDisplay:10.37,2013-04-09 20:40:00,
2013-04-09 16:45:00,84.0,60.4,29.98,SW,222,7.6,8.1,45,0.00,SCT,,0.00,WeatherDisplay:10.37,2013-04-09 20:45:00,
2013-04-09 16:50:00,83.7,60.1,29.98,ESE,109,9.5,11.8,45,0.00,SCT,,0.00,WeatherDisplay:10.37,2013-04-09 20:50:00,
2013-04-09 16:55:00,83.1,59.6,29.98,SSE,155,7.7,9.2,45,0.00,SCT,,0.00,WeatherDisplay:10.37,2013-04-09 20:55:00,
2013-04-09 17:00:00,82.6,59.7,29.98,SW,222,8.9,9.2,46,0.00,SCT,,0.00,WeatherDisplay:10.37,2013-04-09 21:00:00,
2013-04-09 17:05:00,82.0,59.8,29.97,WSW,245,5.7,7.6,47,0.00,SCT,,0.00,WeatherDisplay:10.37,2013-04-09 21:05:00,
2013-04-09 17:10:00,82.0,59.8,29.97,SSW,199,9.7,10.4,47,0.00,SCT,,0.00,WeatherDisplay:10.37,2013-04-09 21:10:00,
2013-04-09 17:15:00,82.2,60.0,29.97,South,177,8.3,8.3,47,0.00,SCT,,0.00,WeatherDisplay:10.37,2013-04-09 21:15:00,
2013-04-09 17:20:00,82.8,60.5,29.96,WSW,245,10.6,10.6,47,0.00,SCT,,0.00,WeatherDisplay:10.37,2013-04-09 21:20:00,
2013-04-09 17:25:00,82.9,60.6,29.97,South,177,7.8,8.1,47,0.00,SCT,,0.00,WeatherDisplay:10.37,2013-04-09 21:25:00,
2013-04-09 17:30:00,82.9,60.6,29.97,SSW,199,16.8,17.3,47,0.00,SCT,,0.00,WeatherDisplay:10.37,2013-04-09 21:30:00,
2013-04-09 17:35:00,82.4,60.1,29.97,SW,231,14.0,0.0,47,0.00,SCT,,0.00,WeatherDisplay:10.37,2013-04-09 21:35:00,
2013-04-09 17:40:00,82.0,60.4,29.98,SSW,199,11.2,11.5,48,0.00,SCT,,0.00,WeatherDisplay:10.37,2013-04-09 21:40:00,
2013-04-09 17:45:00,81.7,60.1,29.98,SW,216,17.0,0.0,48,0.00,SCT,,0.00,WeatherDisplay:10.37,2013-04-09 21:45:00,
2013-04-09 17:50:00,81.4,59.8,29.98,SSW,208,16.0,0.0,48,0.00,SCT,,0.00,WeatherDisplay:10.37,2013-04-09 21:50:00,
2013-04-09 17:55:00,81.1,60.2,29.98,SSW,199,17.7,17.7,49,0.00,SCT,,0.00,WeatherDisplay:10.37,2013-04-09 21:55:00,
2013-04-09 18:00:00,80.8,59.8,29.98,SSE,155,7.4,7.4,49,0.00,SCT,,0.00,WeatherDisplay:10.37,2013-04-09 22:00:00,
2013-04-09 18:05:00,80.4,59.5,29.98,SSE,155,9.2,10.4,49,0.00,SCT,,0.00,WeatherDisplay:10.37,2013-04-09 22:05:00,
2013-04-09 18:10:00,80.2,59.9,29.98,SSW,199,8.3,15.0,50,0.00,BKN,,0.00,WeatherDisplay:10.37,2013-04-09 22:10:00,
2013-04-09 18:15:00,79.5,59.2,29.98,WSW,245,10.5,10.5,50,0.00,BKN,,0.00,WeatherDisplay:10.37,2013-04-09 22:15:00,
2013-04-09 18:20:00,79.2,59.5,29.99,South,177,8.2,8.2,51,0.00,BKN,,0.00,WeatherDisplay:10.37,2013-04-09 22:20:00,
2013-04-09 18:25:00,79.0,59.3,29.98,SW,222,5.4,5.8,51,0.00,BKN,,0.00,WeatherDisplay:10.37,2013-04-09 22:25:00,
2013-04-09 18:30:00,78.6,59.0,29.98,South,177,10.5,10.5,51,0.00,BKN,,0.00,WeatherDisplay:10.37,2013-04-09 22:30:00,
2013-04-09 18:35:00,78.4,59.4,29.98,WNW,289,7.5,8.1,52,0.00,BKN,,0.00,WeatherDisplay:10.37,2013-04-09 22:35:00,
2013-04-09 18:40:00,77.9,58.9,29.98,SW,222,16.3,16.3,52,0.00,BKN,,0.00,WeatherDisplay:10.37,2013-04-09 22:40:00,
2013-04-09 18:45:00,78.4,59.4,29.98,SSW,199,14.1,14.1,52,0.00,BKN,,0.00,WeatherDisplay:10.37,2013-04-09 22:45:00,
2013-04-09 18:50:00,78.6,59.0,29.98,SSW,199,17.0,17.3,51,0.00,BKN,,0.00,WeatherDisplay:10.37,2013-04-09 22:50:00,
2013-04-09 18:55:00,79.2,59.5,29.98,WSW,245,18.5,18.5,51,0.00,BKN,,0.00,WeatherDisplay:10.37,2013-04-09 22:55:00,
2013-04-09 19:00:00,79.3,59.1,29.98,WNW,289,16.7,18.4,50,0.00,BKN,,0.00,WeatherDisplay:10.37,2013-04-09 23:00:00,
2013-04-09 19:05:00,79.0,59.3,29.98,WSW,245,12.3,16.1,51,0.00,BKN,,0.00,WeatherDisplay:10.37,2013-04-09 23:05:00,
2013-04-09 19:10:00,78.6,59.0,29.98,West,267,15.6,17.3,51,0.00,BKN,,0.00,WeatherDisplay:10.37,2013-04-09 23:10:00,
2013-04-09 19:15:00,77.9,58.3,29.99,WNW,289,10.4,10.4,51,0.00,BKN,,0.00,WeatherDisplay:10.37,2013-04-09 23:15:00,
2013-04-09 19:20:00,77.5,58.5,29.99,West,267,5.2,8.1,52,0.00,BKN,,0.00,WeatherDisplay:10.37,2013-04-09 23:20:00,
2013-04-09 19:25:00,77.0,58.0,29.99,WSW,245,12.3,12.7,52,0.00,BKN,,0.00,WeatherDisplay:10.37,2013-04-09 23:25:00,
2013-04-09 19:30:00,76.6,58.2,29.99,West,267,8.9,12.7,53,0.00,BKN,,0.00,WeatherDisplay:10.37,2013-04-09 23:30:00,
2013-04-09 19:35:00,76.1,57.7,29.99,SE,132,5.8,11.5,53,0.00,BKN,,0.00,WeatherDisplay:10.37,2013-04-09 23:35:00,
2013-04-09 19:40:00,75.9,58.1,29.99,West,267,4.0,9.2,54,0.00,BKN,,0.00,WeatherDisplay:10.37,2013-04-09 23:40:00,
2013-04-09 19:45:00,75.4,57.6,29.99,West,267,8.8,10.4,54,0.00,BKN,,0.00,WeatherDisplay:10.37,2013-04-09 23:45:00,
2013-04-09 19:50:00,75.2,57.4,29.99,SW,222,11.6,11.8,54,0.00,BKN,,0.00,WeatherDisplay:10.37,2013-04-09 23:50:00,
2013-04-09 19:55:00,75.0,57.2,30.00,SW,222,2.5,2.5,54,0.00,BKN,,0.00,WeatherDisplay:10.37,2013-04-09 23:55:00,
2013-04-09 20:00:00,74.8,57.6,30.00,WSW,241,8.0,0.0,55,0.00,BKN,,0.00,WeatherDisplay:10.37,2013-04-10 00:00:00,
2013-04-09 20:05:00,74.3,57.1,30.00,SW,222,5.1,5.1,55,0.00,BKN,,0.00,WeatherDisplay:10.37,2013-04-10 00:05:00,
2013-04-09 20:10:00,74.1,57.4,30.00,SSE,155,1.8,2.3,56,0.00,BKN,,0.00,WeatherDisplay:10.37,2013-04-10 00:10:00,
2013-04-09 20:15:00,73.8,57.1,30.00,WSW,245,4.4,6.9,56,0.00,BKN,,0.00,WeatherDisplay:10.37,2013-04-10 00:15:00,
2013-04-09 20:20:00,73.2,56.6,30.00,SSW,199,0.5,3.5,56,0.00,BKN,,0.00,WeatherDisplay:10.37,2013-04-10 00:20:00,
2013-04-09 20:25:00,72.7,56.6,30.00,WSW,245,2.9,3.5,57,0.00,BKN,,0.00,WeatherDisplay:10.37,2013-04-10 00:25:00,
2013-04-09 20:30:00,72.3,56.2,30.00,West,267,2.4,2.4,57,0.00,BKN,,0.00,WeatherDisplay:10.37,2013-04-10 00:30:00,
2013-04-09 20:35:00,72.1,56.5,30.00,SW,222,1.3,3.5,58,0.00,BKN,,0.00,WeatherDisplay:10.37,2013-04-10 00:35:00,
2013-04-09 20:40:00,71.8,56.7,30.00,SW,222,2.0,3.5,59,0.00,BKN,,0.00,WeatherDisplay:10.37,2013-04-10 00:40:00,
2013-04-09 20:45:00,71.4,56.3,30.00,SSE,155,3.0,3.5,59,0.00,BKN,,0.00,WeatherDisplay:10.37,2013-04-10 00:45:00,
2013-04-09 20:50:00,71.2,56.6,30.00,WSW,245,0.0,0.0,60,0.00,BKN,,0.00,WeatherDisplay:10.37,2013-04-10 00:50:00,
2013-04-09 20:55:00,70.9,56.3,30.00,WSW,245,3.1,3.5,60,0.00,BKN,,0.00,WeatherDisplay:10.37,2013-04-10 00:55:00,
2013-04-09 21:00:00,70.5,56.0,30.00,South,177,1.3,2.2,60,0.00,BKN,,0.00,WeatherDisplay:10.37,2013-04-10 01:00:00,
2013-04-09 21:05:00,70.3,56.2,30.00,SW,222,0.9,1.1,61,0.00,BKN,,0.00,WeatherDisplay:10.37,2013-04-10 01:05:00,
2013-04-09 21:10:00,70.2,56.1,30.00,SW,222,1.8,2.3,61,0.00,BKN,,0.00,WeatherDisplay:10.37,2013-04-10 01:10:00,
2013-04-09 21:15:00,70.0,55.9,30.00,SSW,199,0.4,1.1,61,0.00,BKN,,0.00,WeatherDisplay:10.37,2013-04-10 01:15:00,
2013-04-09 21:20:00,70.0,55.9,30.00,SW,222,3.8,3.8,61,0.00,BKN,,0.00,WeatherDisplay:10.37,2013-04-10 01:20:00,
2013-04-09 21:25:00,69.6,55.6,30.01,West,267,0.0,0.0,61,0.00,BKN,,0.00,WeatherDisplay:10.37,2013-04-10 01:25:00,
2013-04-09 21:30:00,69.6,56.0,30.01,South,177,2.8,3.5,62,0.00,BKN,,0.00,WeatherDisplay:10.37,2013-04-10 01:30:00,
2013-04-09 21:35:00,69.6,56.0,30.00,WSW,245,1.3,1.3,62,0.00,BKN,,0.00,WeatherDisplay:10.37,2013-04-10 01:35:00,
2013-04-09 21:40:00,69.4,55.9,30.01,SSW,199,3.4,3.5,62,0.00,BKN,,0.00,WeatherDisplay:10.37,2013-04-10 01:40:00,
2013-04-09 21:45:00,69.4,56.3,30.00,WNW,289,1.5,2.3,63,0.00,BKN,,0.00,WeatherDisplay:10.37,2013-04-10 01:45:00,
2013-04-09 21:50:00,69.1,56.0,30.00,SSW,199,2.9,3.5,63,0.00,BKN,,0.00,WeatherDisplay:10.37,2013-04-10 01:50:00,
2013-04-09 21:55:00,68.7,55.2,30.00,South,177,2.5,2.5,62,0.00,BKN,,0.00,WeatherDisplay:10.37,2013-04-10 01:55:00,
2013-04-09 22:00:00,68.7,55.6,30.00,South,177,1.6,1.6,63,0.00,BKN,,0.00,WeatherDisplay:10.37,2013-04-10 02:00:00,
2013-04-09 22:05:00,68.5,55.4,30.00,SSE,155,0.0,2.3,63,0.00,BKN,,0.00,WeatherDisplay:10.37,2013-04-10 02:05:00,
2013-04-09 22:10:00,68.5,55.9,30.00,South,177,2.7,5.8,64,0.00,OVC,,0.00,WeatherDisplay:10.37,2013-04-10 02:10:00,
2013-04-09 22:15:00,68.4,55.7,30.00,SW,222,2.1,3.5,64,0.00,OVC,,0.00,WeatherDisplay:10.37,2013-04-10 02:15:00,
2013-04-09 22:20:00,68.4,55.7,30.00,SW,222,5.4,5.8,64,0.00,OVC,,0.00,WeatherDisplay:10.37,2013-04-10 02:20:00,
2013-04-09 22:25:00,68.4,55.7,30.00,SW,222,2.5,2.5,64,0.00,OVC,,0.00,WeatherDisplay:10.37,2013-04-10 02:25:00,
2013-04-09 22:30:00,68.2,55.5,30.00,SW,222,3.1,5.8,64,0.00,OVC,,0.00,WeatherDisplay:10.37,2013-04-10 02:30:00,
2013-04-09 22:35:00,68.2,56.0,30.00,South,177,6.7,6.9,65,0.00,OVC,,0.00,WeatherDisplay:10.37,2013-04-10 02:35:00,
2013-04-09 22:40:00,68.2,55.5,30.00,SW,222,2.2,2.3,64,0.00,OVC,,0.00,WeatherDisplay:10.37,2013-04-10 02:40:00,
2013-04-09 22:45:00,68.2,56.0,30.00,WSW,245,2.4,2.5,65,0.00,OVC,,0.00,WeatherDisplay:10.37,2013-04-10 02:45:00,
2013-04-09 22:50:00,67.8,55.6,30.00,WSW,245,1.5,1.6,65,0.00,OVC,,0.00,WeatherDisplay:10.37,2013-04-10 02:50:00,
2013-04-09 22:55:00,67.8,55.6,30.00,SSW,199,1.8,2.3,65,0.00,OVC,,0.00,WeatherDisplay:10.37,2013-04-10 02:55:00,
2013-04-09 23:00:00,67.6,55.5,30.00,South,177,1.0,1.3,65,0.00,OVC,,0.00,WeatherDisplay:10.37,2013-04-10 03:00:00,
2013-04-09 23:05:00,67.3,55.1,29.99,WSW,245,2.5,2.5,65,0.00,OVC,,0.00,WeatherDisplay:10.37,2013-04-10 03:05:00,
2013-04-09 23:10:00,67.1,55.4,29.99,SW,222,1.1,1.1,66,0.00,FEW,,0.00,WeatherDisplay:10.37,2013-04-10 03:10:00,
2013-04-09 23:15:00,66.9,55.2,29.99,South,177,1.9,2.3,66,0.00,FEW,,0.00,WeatherDisplay:10.37,2013-04-10 03:15:00,
2013-04-09 23:20:00,66.7,55.4,29.99,SW,222,3.1,3.5,67,0.00,FEW,,0.00,WeatherDisplay:10.37,2013-04-10 03:20:00,
2013-04-09 23:25:00,66.7,55.4,29.98,SSW,199,2.2,2.3,67,0.00,FEW,,0.00,WeatherDisplay:10.37,2013-04-10 03:25:00,
2013-04-09 23:30:00,66.6,54.8,29.98,SW,222,0.0,0.0,66,0.00,FEW,,0.00,WeatherDisplay:10.37,2013-04-10 03:30:00,
2013-04-09 23:35:00,66.4,55.1,29.99,South,177,2.7,2.7,67,0.00,FEW,,0.00,WeatherDisplay:10.37,2013-04-10 03:35:00,
2013-04-09 23:40:00,66.0,54.7,29.98,SW,222,3.8,3.8,67,0.00,FEW,,0.00,WeatherDisplay:10.37,2013-04-10 03:40:00,
2013-04-09 23:45:00,66.0,54.7,29.98,SSW,199,1.5,2.3,67,0.00,FEW,,0.00,WeatherDisplay:10.37,2013-04-10 03:45:00,
2013-04-09 23:50:00,66.0,55.2,29.98,SW,222,0.0,0.0,68,0.00,FEW,,0.00,WeatherDisplay:10.37,2013-04-10 03:50:00,
2013-04-09 23:55:00,65.8,55.0,29.98,SSW,199,2.5,3.6,68,0.00,FEW,,0.00,WeatherDisplay:10.37,2013-04-10 03:55:00,